sensor_id;sensor_type;location;lat;lon;timestamp;temperature;humidity
39751;DHT22;37579;51.074;17.004;2023-06-22T00:01:58;29.90;57.60
39751;DHT22;37579;51.074;17.004;2023-06-22T00:04:24;29.90;57.60
39751;DHT22;37579;51.074;17.004;2023-06-22T00:06:51;29.80;57.80
39751;DHT22;37579;51.074;17.004;2023-06-22T00:09:16;29.80;57.80
39751;DHT22;37579;51.074;17.004;2023-06-22T00:11:42;29.80;57.70
39751;DHT22;37579;51.074;17.004;2023-06-22T00:14:08;29.80;57.80
39751;DHT22;37579;51.074;17.004;2023-06-22T00:16:34;29.80;57.90
39751;DHT22;37579;51.074;17.004;2023-06-22T00:19:00;29.80;57.80
39751;DHT22;37579;51.074;17.004;2023-06-22T00:21:28;29.80;57.60
39751;DHT22;37579;51.074;17.004;2023-06-22T00:23:53;29.80;57.70
39751;DHT22;37579;51.074;17.004;2023-06-22T00:26:20;29.80;57.60
39751;DHT22;37579;51.074;17.004;2023-06-22T00:28:46;29.80;57.60
39751;DHT22;37579;51.074;17.004;2023-06-22T00:31:12;29.90;57.80
39751;DHT22;37579;51.074;17.004;2023-06-22T00:33:38;29.80;57.80
39751;DHT22;37579;51.074;17.004;2023-06-22T00:36:05;29.80;57.80
39751;DHT22;37579;51.074;17.004;2023-06-22T00:38:33;29.80;57.80
39751;DHT22;37579;51.074;17.004;2023-06-22T00:41:00;29.80;57.90
39751;DHT22;37579;51.074;17.004;2023-06-22T00:43:26;29.80;57.60
39751;DHT22;37579;51.074;17.004;2023-06-22T00:45:52;29.80;57.60
39751;DHT22;37579;51.074;17.004;2023-06-22T00:48:22;29.80;57.70
39751;DHT22;37579;51.074;17.004;2023-06-22T00:50:48;29.80;57.70
39751;DHT22;37579;51.074;17.004;2023-06-22T00:53:16;29.80;57.70
39751;DHT22;37579;51.074;17.004;2023-06-22T00:55:44;29.80;57.70
39751;DHT22;37579;51.074;17.004;2023-06-22T00:58:13;29.80;57.80
39751;DHT22;37579;51.074;17.004;2023-06-22T01:00:41;29.70;57.70
39751;DHT22;37579;51.074;17.004;2023-06-22T01:03:07;29.80;57.70
39751;DHT22;37579;51.074;17.004;2023-06-22T01:05:36;29.80;57.60
39751;DHT22;37579;51.074;17.004;2023-06-22T01:13:16;29.80;57.50
39751;DHT22;37579;51.074;17.004;2023-06-22T01:15:49;29.80;57.60
39751;DHT22;37579;51.074;17.004;2023-06-22T01:18:17;29.80;57.70
39751;DHT22;37579;51.074;17.004;2023-06-22T01:20:44;29.80;57.70
39751;DHT22;37579;51.074;17.004;2023-06-22T01:26:08;29.80;57.60
39751;DHT22;37579;51.074;17.004;2023-06-22T01:28:42;29.80;57.60
39751;DHT22;37579;51.074;17.004;2023-06-22T01:31:11;29.80;57.60
39751;DHT22;37579;51.074;17.004;2023-06-22T01:33:41;29.80;57.60
39751;DHT22;37579;51.074;17.004;2023-06-22T01:36:08;29.70;57.50
39751;DHT22;37579;51.074;17.004;2023-06-22T01:38:34;29.80;57.40
39751;DHT22;37579;51.074;17.004;2023-06-22T01:41:02;29.80;57.40
39751;DHT22;37579;51.074;17.004;2023-06-22T01:43:29;29.80;57.40
39751;DHT22;37579;51.074;17.004;2023-06-22T01:45:56;29.80;57.50
39751;DHT22;37579;51.074;17.004;2023-06-22T01:48:23;29.80;57.40
39751;DHT22;37579;51.074;17.004;2023-06-22T01:50:49;29.80;57.50
39751;DHT22;37579;51.074;17.004;2023-06-22T01:53:16;29.80;57.50
39751;DHT22;37579;51.074;17.004;2023-06-22T01:55:42;29.70;57.50
39751;DHT22;37579;51.074;17.004;2023-06-22T01:58:07;29.80;57.30
39751;DHT22;37579;51.074;17.004;2023-06-22T02:00:36;29.80;57.30
39751;DHT22;37579;51.074;17.004;2023-06-22T02:03:10;29.80;57.30
39751;DHT22;37579;51.074;17.004;2023-06-22T02:05:42;29.80;57.30
39751;DHT22;37579;51.074;17.004;2023-06-22T02:08:23;29.80;57.50
39751;DHT22;37579;51.074;17.004;2023-06-22T02:10:51;29.70;57.40
39751;DHT22;37579;51.074;17.004;2023-06-22T02:13:20;29.70;57.30
39751;DHT22;37579;51.074;17.004;2023-06-22T02:15:46;29.80;57.20
39751;DHT22;37579;51.074;17.004;2023-06-22T02:18:12;29.80;57.20
39751;DHT22;37579;51.074;17.004;2023-06-22T02:20:39;29.80;57.20
39751;DHT22;37579;51.074;17.004;2023-06-22T02:23:06;29.70;57.20
39751;DHT22;37579;51.074;17.004;2023-06-22T02:25:35;29.80;57.20
39751;DHT22;37579;51.074;17.004;2023-06-22T02:28:01;29.80;57.20
39751;DHT22;37579;51.074;17.004;2023-06-22T02:30:27;29.70;57.30
39751;DHT22;37579;51.074;17.004;2023-06-22T02:32:53;29.70;57.20
39751;DHT22;37579;51.074;17.004;2023-06-22T02:35:28;29.70;57.30
39751;DHT22;37579;51.074;17.004;2023-06-22T02:38:00;29.70;57.20
39751;DHT22;37579;51.074;17.004;2023-06-22T02:40:27;29.80;57.30
39751;DHT22;37579;51.074;17.004;2023-06-22T02:42:56;29.80;57.10
39751;DHT22;37579;51.074;17.004;2023-06-22T02:45:23;29.70;57.10
39751;DHT22;37579;51.074;17.004;2023-06-22T02:47:50;29.70;57.10
39751;DHT22;37579;51.074;17.004;2023-06-22T02:50:17;29.70;57.20
39751;DHT22;37579;51.074;17.004;2023-06-22T02:52:43;29.70;57.10
39751;DHT22;37579;51.074;17.004;2023-06-22T02:55:09;29.70;57.10
39751;DHT22;37579;51.074;17.004;2023-06-22T02:57:35;29.70;57.10
39751;DHT22;37579;51.074;17.004;2023-06-22T03:00:03;29.70;57.10
39751;DHT22;37579;51.074;17.004;2023-06-22T03:02:38;29.70;56.90
39751;DHT22;37579;51.074;17.004;2023-06-22T03:05:04;29.70;57.00
39751;DHT22;37579;51.074;17.004;2023-06-22T03:07:31;29.70;57.10
39751;DHT22;37579;51.074;17.004;2023-06-22T03:09:57;29.70;57.10
39751;DHT22;37579;51.074;17.004;2023-06-22T03:12:24;29.70;57.10
39751;DHT22;37579;51.074;17.004;2023-06-22T03:14:52;29.70;57.00
39751;DHT22;37579;51.074;17.004;2023-06-22T03:17:18;29.70;57.00
39751;DHT22;37579;51.074;17.004;2023-06-22T03:19:44;29.70;57.00
39751;DHT22;37579;51.074;17.004;2023-06-22T03:22:10;29.70;57.00
39751;DHT22;37579;51.074;17.004;2023-06-22T03:24:36;29.70;57.00
39751;DHT22;37579;51.074;17.004;2023-06-22T03:27:03;29.60;56.80
39751;DHT22;37579;51.074;17.004;2023-06-22T03:29:30;29.70;57.00
39751;DHT22;37579;51.074;17.004;2023-06-22T03:31:56;29.70;56.80
39751;DHT22;37579;51.074;17.004;2023-06-22T03:34:22;29.70;56.80
39751;DHT22;37579;51.074;17.004;2023-06-22T03:36:51;29.70;56.80
39751;DHT22;37579;51.074;17.004;2023-06-22T03:39:17;29.70;56.80
39751;DHT22;37579;51.074;17.004;2023-06-22T03:41:43;29.70;56.70
39751;DHT22;37579;51.074;17.004;2023-06-22T03:44:09;29.70;56.70
39751;DHT22;37579;51.074;17.004;2023-06-22T03:46:38;29.70;56.80
39751;DHT22;37579;51.074;17.004;2023-06-22T03:49:04;29.70;56.80
39751;DHT22;37579;51.074;17.004;2023-06-22T03:51:32;29.70;56.80
39751;DHT22;37579;51.074;17.004;2023-06-22T03:53:58;29.70;57.00
39751;DHT22;37579;51.074;17.004;2023-06-22T03:56:24;29.70;56.80
39751;DHT22;37579;51.074;17.004;2023-06-22T03:58:49;29.70;56.80
39751;DHT22;37579;51.074;17.004;2023-06-22T04:01:15;29.70;56.80
39751;DHT22;37579;51.074;17.004;2023-06-22T04:03:42;29.70;56.60
39751;DHT22;37579;51.074;17.004;2023-06-22T04:06:08;29.70;56.70
39751;DHT22;37579;51.074;17.004;2023-06-22T04:08:34;29.70;56.70
39751;DHT22;37579;51.074;17.004;2023-06-22T04:11:00;29.70;56.80
39751;DHT22;37579;51.074;17.004;2023-06-22T04:13:26;29.80;56.70
39751;DHT22;37579;51.074;17.004;2023-06-22T04:15:51;29.80;56.70
39751;DHT22;37579;51.074;17.004;2023-06-22T04:18:17;29.80;56.60
39751;DHT22;37579;51.074;17.004;2023-06-22T04:20:43;29.80;56.60
39751;DHT22;37579;51.074;17.004;2023-06-22T04:23:12;29.70;56.60
39751;DHT22;37579;51.074;17.004;2023-06-22T04:25:39;29.80;56.50
39751;DHT22;37579;51.074;17.004;2023-06-22T04:28:05;29.80;57.20
39751;DHT22;37579;51.074;17.004;2023-06-22T04:30:32;29.90;56.50
39751;DHT22;37579;51.074;17.004;2023-06-22T04:32:58;29.90;56.40
39751;DHT22;37579;51.074;17.004;2023-06-22T04:35:24;29.80;56.30
39751;DHT22;37579;51.074;17.004;2023-06-22T04:37:51;29.90;56.40
39751;DHT22;37579;51.074;17.004;2023-06-22T04:40:22;29.90;56.30
39751;DHT22;37579;51.074;17.004;2023-06-22T04:42:48;29.90;56.40
39751;DHT22;37579;51.074;17.004;2023-06-22T04:45:20;29.90;56.40
39751;DHT22;37579;51.074;17.004;2023-06-22T04:47:46;29.90;56.30
39751;DHT22;37579;51.074;17.004;2023-06-22T04:50:12;30.00;56.30
39751;DHT22;37579;51.074;17.004;2023-06-22T04:52:38;30.00;56.30
39751;DHT22;37579;51.074;17.004;2023-06-22T04:55:04;30.10;56.30
39751;DHT22;37579;51.074;17.004;2023-06-22T04:57:30;30.10;56.20
39751;DHT22;37579;51.074;17.004;2023-06-22T05:00:01;30.10;56.30
39751;DHT22;37579;51.074;17.004;2023-06-22T05:02:41;30.10;56.20
39751;DHT22;37579;51.074;17.004;2023-06-22T05:05:08;30.20;56.20
39751;DHT22;37579;51.074;17.004;2023-06-22T05:07:34;30.10;56.20
39751;DHT22;37579;51.074;17.004;2023-06-22T05:10:01;30.10;56.10
39751;DHT22;37579;51.074;17.004;2023-06-22T05:12:28;30.20;55.90
39751;DHT22;37579;51.074;17.004;2023-06-22T05:14:54;30.30;55.80
39751;DHT22;37579;51.074;17.004;2023-06-22T05:17:20;30.30;55.80
39751;DHT22;37579;51.074;17.004;2023-06-22T05:19:46;30.30;55.80
39751;DHT22;37579;51.074;17.004;2023-06-22T05:22:15;30.40;55.90
39751;DHT22;37579;51.074;17.004;2023-06-22T05:24:41;30.40;55.70
39751;DHT22;37579;51.074;17.004;2023-06-22T05:27:08;30.40;55.70
39751;DHT22;37579;51.074;17.004;2023-06-22T05:29:34;30.40;55.80
39751;DHT22;37579;51.074;17.004;2023-06-22T05:32:01;30.40;55.80
39751;DHT22;37579;51.074;17.004;2023-06-22T05:34:26;30.40;55.90
39751;DHT22;37579;51.074;17.004;2023-06-22T05:36:52;30.50;55.60
39751;DHT22;37579;51.074;17.004;2023-06-22T05:39:18;30.60;55.60
39751;DHT22;37579;51.074;17.004;2023-06-22T05:41:45;30.50;55.30
39751;DHT22;37579;51.074;17.004;2023-06-22T05:44:11;30.50;55.10
39751;DHT22;37579;51.074;17.004;2023-06-22T05:46:40;30.60;55.00
39751;DHT22;37579;51.074;17.004;2023-06-22T05:49:11;30.60;54.70
39751;DHT22;37579;51.074;17.004;2023-06-22T05:51:37;30.70;54.30
39751;DHT22;37579;51.074;17.004;2023-06-22T05:54:02;30.70;53.90
39751;DHT22;37579;51.074;17.004;2023-06-22T05:56:28;30.70;53.50
39751;DHT22;37579;51.074;17.004;2023-06-22T05:58:54;30.70;53.50
39751;DHT22;37579;51.074;17.004;2023-06-22T06:01:20;30.80;53.30
39751;DHT22;37579;51.074;17.004;2023-06-22T06:03:46;31.20;52.20
39751;DHT22;37579;51.074;17.004;2023-06-22T06:06:12;31.80;50.50
39751;DHT22;37579;51.074;17.004;2023-06-22T06:08:39;32.30;49.30
39751;DHT22;37579;51.074;17.004;2023-06-22T06:11:05;32.60;48.60
39751;DHT22;37579;51.074;17.004;2023-06-22T06:13:31;32.90;48.20
39751;DHT22;37579;51.074;17.004;2023-06-22T06:15:57;33.10;47.50
39751;DHT22;37579;51.074;17.004;2023-06-22T06:18:23;33.20;47.10
39751;DHT22;37579;51.074;17.004;2023-06-22T06:20:48;33.60;46.40
39751;DHT22;37579;51.074;17.004;2023-06-22T06:23:14;33.70;45.90
39751;DHT22;37579;51.074;17.004;2023-06-22T06:25:40;33.80;45.60
39751;DHT22;37579;51.074;17.004;2023-06-22T06:28:06;34.10;45.40
39751;DHT22;37579;51.074;17.004;2023-06-22T06:30:32;34.00;45.50
39751;DHT22;37579;51.074;17.004;2023-06-22T06:32:58;34.10;45.20
39751;DHT22;37579;51.074;17.004;2023-06-22T06:35:24;34.10;44.90
39751;DHT22;37579;51.074;17.004;2023-06-22T06:37:50;34.20;44.50
39751;DHT22;37579;51.074;17.004;2023-06-22T06:40:17;34.40;44.40
39751;DHT22;37579;51.074;17.004;2023-06-22T06:42:48;34.40;44.60
39751;DHT22;37579;51.074;17.004;2023-06-22T06:45:18;34.00;45.10
39751;DHT22;37579;51.074;17.004;2023-06-22T06:47:44;33.20;46.60
39751;DHT22;37579;51.074;17.004;2023-06-22T06:50:11;32.50;48.10
39751;DHT22;37579;51.074;17.004;2023-06-22T06:52:37;32.10;49.00
39751;DHT22;37579;51.074;17.004;2023-06-22T06:55:03;31.90;49.60
39751;DHT22;37579;51.074;17.004;2023-06-22T06:57:30;31.70;50.00
39751;DHT22;37579;51.074;17.004;2023-06-22T06:59:56;31.50;50.50
39751;DHT22;37579;51.074;17.004;2023-06-22T07:02:23;31.40;50.90
39751;DHT22;37579;51.074;17.004;2023-06-22T07:04:49;31.40;50.70
39751;DHT22;37579;51.074;17.004;2023-06-22T07:07:15;31.40;50.90
39751;DHT22;37579;51.074;17.004;2023-06-22T07:09:41;31.40;50.70
39751;DHT22;37579;51.074;17.004;2023-06-22T07:12:07;31.30;50.90
39751;DHT22;37579;51.074;17.004;2023-06-22T07:14:33;31.40;50.90
39751;DHT22;37579;51.074;17.004;2023-06-22T07:16:59;31.30;50.50
39751;DHT22;37579;51.074;17.004;2023-06-22T07:19:25;31.40;50.40
39751;DHT22;37579;51.074;17.004;2023-06-22T07:21:52;31.30;50.90
39751;DHT22;37579;51.074;17.004;2023-06-22T07:24:20;31.20;50.90
39751;DHT22;37579;51.074;17.004;2023-06-22T07:26:47;31.20;51.30
39751;DHT22;37579;51.074;17.004;2023-06-22T07:29:14;31.10;51.30
39751;DHT22;37579;51.074;17.004;2023-06-22T07:31:40;31.20;51.50
39751;DHT22;37579;51.074;17.004;2023-06-22T07:34:06;31.10;51.80
39751;DHT22;37579;51.074;17.004;2023-06-22T07:36:32;31.00;52.00
39751;DHT22;37579;51.074;17.004;2023-06-22T07:38:58;31.00;52.00
39751;DHT22;37579;51.074;17.004;2023-06-22T07:41:24;31.10;51.80
39751;DHT22;37579;51.074;17.004;2023-06-22T07:43:49;31.00;51.80
39751;DHT22;37579;51.074;17.004;2023-06-22T07:46:16;31.10;51.80
39751;DHT22;37579;51.074;17.004;2023-06-22T07:48:42;31.10;51.90
39751;DHT22;37579;51.074;17.004;2023-06-22T07:51:09;31.10;52.20
39751;DHT22;37579;51.074;17.004;2023-06-22T07:53:43;31.10;52.30
39751;DHT22;37579;51.074;17.004;2023-06-22T07:56:12;31.10;52.30
39751;DHT22;37579;51.074;17.004;2023-06-22T07:58:38;31.00;52.60
39751;DHT22;37579;51.074;17.004;2023-06-22T08:01:04;31.00;52.10
39751;DHT22;37579;51.074;17.004;2023-06-22T08:03:30;31.00;52.20
39751;DHT22;37579;51.074;17.004;2023-06-22T08:05:56;31.00;52.40
39751;DHT22;37579;51.074;17.004;2023-06-22T08:08:21;30.90;53.20
39751;DHT22;37579;51.074;17.004;2023-06-22T08:10:47;30.90;53.30
39751;DHT22;37579;51.074;17.004;2023-06-22T08:13:14;30.90;53.20
39751;DHT22;37579;51.074;17.004;2023-06-22T08:15:40;30.90;53.80
39751;DHT22;37579;51.074;17.004;2023-06-22T08:18:06;31.00;53.40
39751;DHT22;37579;51.074;17.004;2023-06-22T08:20:32;30.90;53.30
39751;DHT22;37579;51.074;17.004;2023-06-22T08:22:58;31.10;53.20
39751;DHT22;37579;51.074;17.004;2023-06-22T08:25:30;31.00;53.20
39751;DHT22;37579;51.074;17.004;2023-06-22T08:27:56;30.90;53.20
39751;DHT22;37579;51.074;17.004;2023-06-22T08:30:22;30.90;54.00
39751;DHT22;37579;51.074;17.004;2023-06-22T08:32:47;31.00;53.20
39751;DHT22;37579;51.074;17.004;2023-06-22T08:35:13;30.90;53.20
39751;DHT22;37579;51.074;17.004;2023-06-22T08:37:39;31.00;53.20
39751;DHT22;37579;51.074;17.004;2023-06-22T08:40:08;31.00;53.50
39751;DHT22;37579;51.074;17.004;2023-06-22T08:42:39;30.90;53.20
39751;DHT22;37579;51.074;17.004;2023-06-22T08:45:06;30.80;53.10
39751;DHT22;37579;51.074;17.004;2023-06-22T08:47:32;30.80;53.10
39751;DHT22;37579;51.074;17.004;2023-06-22T08:49:58;30.80;52.80
39751;DHT22;37579;51.074;17.004;2023-06-22T08:52:24;30.80;52.70
39751;DHT22;37579;51.074;17.004;2023-06-22T08:54:50;30.80;52.60
39751;DHT22;37579;51.074;17.004;2023-06-22T08:57:16;30.90;53.10
39751;DHT22;37579;51.074;17.004;2023-06-22T08:59:42;30.80;53.40
39751;DHT22;37579;51.074;17.004;2023-06-22T09:02:08;30.90;52.70
39751;DHT22;37579;51.074;17.004;2023-06-22T09:04:34;30.90;52.50
39751;DHT22;37579;51.074;17.004;2023-06-22T09:07:01;30.90;52.60
39751;DHT22;37579;51.074;17.004;2023-06-22T09:09:27;30.90;52.60
39751;DHT22;37579;51.074;17.004;2023-06-22T09:11:53;30.90;52.80
39751;DHT22;37579;51.074;17.004;2023-06-22T09:14:18;30.80;53.00
39751;DHT22;37579;51.074;17.004;2023-06-22T09:16:44;30.90;53.30
39751;DHT22;37579;51.074;17.004;2023-06-22T09:19:10;30.80;53.00
39751;DHT22;37579;51.074;17.004;2023-06-22T09:21:37;30.90;53.10
39751;DHT22;37579;51.074;17.004;2023-06-22T09:24:03;30.80;52.80
39751;DHT22;37579;51.074;17.004;2023-06-22T09:26:28;30.80;52.60
39751;DHT22;37579;51.074;17.004;2023-06-22T09:28:54;30.80;52.50
39751;DHT22;37579;51.074;17.004;2023-06-22T09:31:20;30.80;52.50
39751;DHT22;37579;51.074;17.004;2023-06-22T09:33:54;30.80;52.60
39751;DHT22;37579;51.074;17.004;2023-06-22T09:36:21;30.80;52.90
39751;DHT22;37579;51.074;17.004;2023-06-22T09:38:47;30.80;52.60
39751;DHT22;37579;51.074;17.004;2023-06-22T09:41:13;30.80;52.40
39751;DHT22;37579;51.074;17.004;2023-06-22T09:43:39;30.80;52.80
39751;DHT22;37579;51.074;17.004;2023-06-22T09:46:06;30.80;53.10
39751;DHT22;37579;51.074;17.004;2023-06-22T09:48:32;30.80;52.80
39751;DHT22;37579;51.074;17.004;2023-06-22T09:50:58;30.80;52.60
39751;DHT22;37579;51.074;17.004;2023-06-22T09:53:24;30.80;52.50
39751;DHT22;37579;51.074;17.004;2023-06-22T09:55:50;30.80;52.60
39751;DHT22;37579;51.074;17.004;2023-06-22T09:58:15;30.80;52.70
39751;DHT22;37579;51.074;17.004;2023-06-22T10:00:41;30.80;52.50
39751;DHT22;37579;51.074;17.004;2023-06-22T10:03:07;30.90;52.40
39751;DHT22;37579;51.074;17.004;2023-06-22T10:05:33;30.80;52.10
39751;DHT22;37579;51.074;17.004;2023-06-22T10:07:59;30.90;51.50
39751;DHT22;37579;51.074;17.004;2023-06-22T10:10:25;31.00;51.80
39751;DHT22;37579;51.074;17.004;2023-06-22T10:12:57;30.90;51.50
39751;DHT22;37579;51.074;17.004;2023-06-22T10:15:24;31.00;51.60
39751;DHT22;37579;51.074;17.004;2023-06-22T10:17:49;30.90;51.50
39751;DHT22;37579;51.074;17.004;2023-06-22T10:20:15;30.90;51.30
39751;DHT22;37579;51.074;17.004;2023-06-22T10:22:44;30.90;51.40
39751;DHT22;37579;51.074;17.004;2023-06-22T10:25:11;30.80;51.10
39751;DHT22;37579;51.074;17.004;2023-06-22T10:27:38;30.90;50.60
39751;DHT22;37579;51.074;17.004;2023-06-22T10:30:08;30.80;50.30
39751;DHT22;37579;51.074;17.004;2023-06-22T10:32:34;30.80;49.90
39751;DHT22;37579;51.074;17.004;2023-06-22T10:35:00;30.80;50.40
39751;DHT22;37579;51.074;17.004;2023-06-22T10:37:26;30.80;50.20
39751;DHT22;37579;51.074;17.004;2023-06-22T10:39:51;30.80;50.20
39751;DHT22;37579;51.074;17.004;2023-06-22T10:42:17;30.90;50.40
39751;DHT22;37579;51.074;17.004;2023-06-22T10:44:43;30.90;50.30
39751;DHT22;37579;51.074;17.004;2023-06-22T10:47:10;30.80;50.60
39751;DHT22;37579;51.074;17.004;2023-06-22T10:49:38;30.80;51.00
39751;DHT22;37579;51.074;17.004;2023-06-22T10:52:07;30.90;51.20
39751;DHT22;37579;51.074;17.004;2023-06-22T10:54:34;30.90;51.20
39751;DHT22;37579;51.074;17.004;2023-06-22T10:57:01;30.90;51.30
39751;DHT22;37579;51.074;17.004;2023-06-22T10:59:27;30.90;51.40
39751;DHT22;37579;51.074;17.004;2023-06-22T11:01:55;30.80;50.70
39751;DHT22;37579;51.074;17.004;2023-06-22T11:04:21;30.80;51.00
39751;DHT22;37579;51.074;17.004;2023-06-22T11:06:48;30.80;51.10
39751;DHT22;37579;51.074;17.004;2023-06-22T11:09:14;30.90;51.30
39751;DHT22;37579;51.074;17.004;2023-06-22T11:11:45;30.80;51.50
39751;DHT22;37579;51.074;17.004;2023-06-22T11:14:11;30.80;51.70
39751;DHT22;37579;51.074;17.004;2023-06-22T11:16:36;30.70;51.80
39751;DHT22;37579;51.074;17.004;2023-06-22T11:19:04;30.70;51.80
39751;DHT22;37579;51.074;17.004;2023-06-22T11:21:30;30.70;51.80
39751;DHT22;37579;51.074;17.004;2023-06-22T11:23:57;30.70;51.80
39751;DHT22;37579;51.074;17.004;2023-06-22T11:26:22;30.70;52.00
39751;DHT22;37579;51.074;17.004;2023-06-22T11:28:48;30.80;52.00
39751;DHT22;37579;51.074;17.004;2023-06-22T11:31:14;30.80;51.10
39751;DHT22;37579;51.074;17.004;2023-06-22T11:33:40;30.80;52.30
39751;DHT22;37579;51.074;17.004;2023-06-22T11:36:06;30.80;52.10
39751;DHT22;37579;51.074;17.004;2023-06-22T11:38:32;30.70;52.10
39751;DHT22;37579;51.074;17.004;2023-06-22T11:40:59;30.80;52.20
39751;DHT22;37579;51.074;17.004;2023-06-22T11:43:25;30.70;52.20
39751;DHT22;37579;51.074;17.004;2023-06-22T11:45:51;30.70;52.40
39751;DHT22;37579;51.074;17.004;2023-06-22T11:48:17;30.60;52.50
39751;DHT22;37579;51.074;17.004;2023-06-22T11:50:43;30.70;52.70
39751;DHT22;37579;51.074;17.004;2023-06-22T11:53:08;30.70;52.70
39751;DHT22;37579;51.074;17.004;2023-06-22T11:55:34;30.70;52.80
39751;DHT22;37579;51.074;17.004;2023-06-22T11:58:00;30.60;53.00
39751;DHT22;37579;51.074;17.004;2023-06-22T12:00:29;30.50;53.20
39751;DHT22;37579;51.074;17.004;2023-06-22T12:02:55;30.60;53.40
39751;DHT22;37579;51.074;17.004;2023-06-22T12:05:22;30.60;53.40
39751;DHT22;37579;51.074;17.004;2023-06-22T12:07:48;30.60;53.40
39751;DHT22;37579;51.074;17.004;2023-06-22T12:10:14;30.60;53.40
39751;DHT22;37579;51.074;17.004;2023-06-22T12:12:40;30.60;53.30
39751;DHT22;37579;51.074;17.004;2023-06-22T12:15:06;30.60;53.30
39751;DHT22;37579;51.074;17.004;2023-06-22T12:17:33;30.60;53.30
39751;DHT22;37579;51.074;17.004;2023-06-22T12:19:59;30.60;53.10
39751;DHT22;37579;51.074;17.004;2023-06-22T12:22:25;30.70;53.40
39751;DHT22;37579;51.074;17.004;2023-06-22T12:24:51;30.70;53.80
39751;DHT22;37579;51.074;17.004;2023-06-22T12:27:17;30.70;54.00
39751;DHT22;37579;51.074;17.004;2023-06-22T12:29:45;30.70;53.80
39751;DHT22;37579;51.074;17.004;2023-06-22T12:32:11;30.70;54.00
39751;DHT22;37579;51.074;17.004;2023-06-22T12:34:41;30.70;53.60
39751;DHT22;37579;51.074;17.004;2023-06-22T12:37:07;30.80;54.00
39751;DHT22;37579;51.074;17.004;2023-06-22T12:39:33;30.80;54.50
39751;DHT22;37579;51.074;17.004;2023-06-22T12:42:00;30.80;54.20
39751;DHT22;37579;51.074;17.004;2023-06-22T12:44:26;30.80;54.90
39751;DHT22;37579;51.074;17.004;2023-06-22T12:46:52;30.80;54.70
39751;DHT22;37579;51.074;17.004;2023-06-22T12:49:18;30.80;55.00
39751;DHT22;37579;51.074;17.004;2023-06-22T12:51:44;30.70;55.10
39751;DHT22;37579;51.074;17.004;2023-06-22T12:54:11;30.80;55.10
39751;DHT22;37579;51.074;17.004;2023-06-22T12:56:38;30.80;55.10
39751;DHT22;37579;51.074;17.004;2023-06-22T12:59:04;30.80;55.00
39751;DHT22;37579;51.074;17.004;2023-06-22T13:01:32;30.80;54.80
39751;DHT22;37579;51.074;17.004;2023-06-22T13:04:00;30.80;54.70
39751;DHT22;37579;51.074;17.004;2023-06-22T13:06:26;30.80;55.10
39751;DHT22;37579;51.074;17.004;2023-06-22T13:08:52;30.90;54.90
39751;DHT22;37579;51.074;17.004;2023-06-22T13:11:18;30.90;55.00
39751;DHT22;37579;51.074;17.004;2023-06-22T13:13:45;30.80;55.00
39751;DHT22;37579;51.074;17.004;2023-06-22T13:16:11;30.80;55.00
39751;DHT22;37579;51.074;17.004;2023-06-22T13:18:37;30.90;54.90
39751;DHT22;37579;51.074;17.004;2023-06-22T13:21:03;30.80;55.10
39751;DHT22;37579;51.074;17.004;2023-06-22T13:23:30;30.80;55.20
39751;DHT22;37579;51.074;17.004;2023-06-22T13:25:56;30.80;55.20
39751;DHT22;37579;51.074;17.004;2023-06-22T13:28:21;30.70;55.30
39751;DHT22;37579;51.074;17.004;2023-06-22T13:30:48;30.80;55.30
39751;DHT22;37579;51.074;17.004;2023-06-22T13:33:13;30.80;55.20
39751;DHT22;37579;51.074;17.004;2023-06-22T13:35:39;30.80;55.40
39751;DHT22;37579;51.074;17.004;2023-06-22T13:38:08;30.80;55.20
39751;DHT22;37579;51.074;17.004;2023-06-22T13:40:35;30.80;55.30
39751;DHT22;37579;51.074;17.004;2023-06-22T13:43:00;30.80;55.50
39751;DHT22;37579;51.074;17.004;2023-06-22T13:45:26;30.80;55.50
39751;DHT22;37579;51.074;17.004;2023-06-22T13:47:52;30.80;55.50
39751;DHT22;37579;51.074;17.004;2023-06-22T13:50:18;30.80;55.50
39751;DHT22;37579;51.074;17.004;2023-06-22T13:52:44;30.80;55.50
39751;DHT22;37579;51.074;17.004;2023-06-22T13:55:10;30.80;55.50
39751;DHT22;37579;51.074;17.004;2023-06-22T13:57:36;30.80;55.60
39751;DHT22;37579;51.074;17.004;2023-06-22T14:00:04;30.70;55.50
39751;DHT22;37579;51.074;17.004;2023-06-22T14:02:39;30.70;55.50
39751;DHT22;37579;51.074;17.004;2023-06-22T14:05:06;30.70;55.50
39751;DHT22;37579;51.074;17.004;2023-06-22T14:07:32;30.70;55.50
39751;DHT22;37579;51.074;17.004;2023-06-22T14:09:58;30.70;55.40
39751;DHT22;37579;51.074;17.004;2023-06-22T14:12:24;30.70;55.50
39751;DHT22;37579;51.074;17.004;2023-06-22T14:14:50;30.70;55.40
39751;DHT22;37579;51.074;17.004;2023-06-22T14:17:16;30.80;55.40
39751;DHT22;37579;51.074;17.004;2023-06-22T14:19:42;30.80;55.30
39751;DHT22;37579;51.074;17.004;2023-06-22T14:22:07;30.80;55.40
39751;DHT22;37579;51.074;17.004;2023-06-22T14:24:33;30.70;56.00
39751;DHT22;37579;51.074;17.004;2023-06-22T14:26:59;30.70;55.30
39751;DHT22;37579;51.074;17.004;2023-06-22T14:29:28;30.80;55.30
39751;DHT22;37579;51.074;17.004;2023-06-22T14:31:53;30.80;55.30
39751;DHT22;37579;51.074;17.004;2023-06-22T14:34:20;30.70;56.00
39751;DHT22;37579;51.074;17.004;2023-06-22T14:36:46;30.80;55.80
39751;DHT22;37579;51.074;17.004;2023-06-22T14:39:11;30.80;55.80
39751;DHT22;37579;51.074;17.004;2023-06-22T14:41:37;30.90;55.80
39751;DHT22;37579;51.074;17.004;2023-06-22T14:44:03;30.90;55.80
39751;DHT22;37579;51.074;17.004;2023-06-22T14:46:29;30.90;56.00
39751;DHT22;37579;51.074;17.004;2023-06-22T14:48:54;30.90;56.00
39751;DHT22;37579;51.074;17.004;2023-06-22T14:51:20;31.00;55.80
39751;DHT22;37579;51.074;17.004;2023-06-22T14:53:46;31.00;56.30
39751;DHT22;37579;51.074;17.004;2023-06-22T14:56:12;31.00;56.20
39751;DHT22;37579;51.074;17.004;2023-06-22T14:58:41;31.00;55.90
39751;DHT22;37579;51.074;17.004;2023-06-22T15:01:11;31.10;56.30
39751;DHT22;37579;51.074;17.004;2023-06-22T15:03:37;31.10;55.70
39751;DHT22;37579;51.074;17.004;2023-06-22T15:06:03;31.10;55.60
39751;DHT22;37579;51.074;17.004;2023-06-22T15:08:29;31.20;56.00
39751;DHT22;37579;51.074;17.004;2023-06-22T15:10:57;31.20;55.80
39751;DHT22;37579;51.074;17.004;2023-06-22T15:13:23;31.10;56.10
39751;DHT22;37579;51.074;17.004;2023-06-22T15:15:50;31.20;56.00
39751;DHT22;37579;51.074;17.004;2023-06-22T15:18:16;31.20;55.80
39751;DHT22;37579;51.074;17.004;2023-06-22T15:20:43;31.30;55.80